Tuesday, June 19, 2018, 12:53 AM EDT
Back to Local

KUUU, Newport State Airport

Location: Middletown, RI, United States Lat: 41.533
Local Time: 12:53 AM EDT ( 4:53 GMT) Lon: -71.283
Time Zone: US/Eastern Elev: 170 ft

Show me the last for .
Show Decoded

2018-06-18 23:53 METAR KUUU 190353Z AUTO 21006KT 10SM SCT120 20/18 A2973 RMK AO2 SLP066 T02000183
                 $ =
2018-06-18 22:53 METAR KUUU 190253Z AUTO 18006KT 10SM FEW100 FEW110 19/18 A2977 RMK AO2 RAB10E48
                 SLP079 P0003 60003 T01940183 58008 $ =
2018-06-18 22:38 METAR KUUU 190238Z AUTO 20004KT 6SM -RA BR FEW047 BKN090 BKN110 20/18 A2980 RMK
                 AO2 LTG DSNT E RAB10 P0003 T02000183 $ =
2018-06-18 22:23 METAR KUUU 190223Z AUTO VRB04KT 5SM VCTS -RA BR FEW047 SCT065 BKN120 20/18 A2981
                 RMK AO2 LTG DSNT E RAB10 P0001 T02000178 $ =
2018-06-18 21:53 METAR KUUU 190153Z AUTO 21008G17KT 10SM CLR 20/18 A2980 RMK AO2 LTG DSNT NW
                 SLP088 T02000178 $ =
2018-06-18 20:53 METAR KUUU 190053Z AUTO 20010G18KT 9SM FEW006 19/18 A2980 RMK AO2 PRESRR SLP089
                 T01940183 $ =
2018-06-18 19:53 METAR KUUU 182353Z AUTO 20008G20KT 9SM FEW003 19/18 A2980 RMK AO2 SLP088
                 T01940183 10228 20189 58009 $ =
2018-06-18 19:48 METAR KUUU 182348Z AUTO 20008G18KT 180V260 8SM SCT003 19/18 A2980 RMK AO2 $ =
2018-06-18 18:53 METAR KUUU 182253Z AUTO 20009G20KT 6SM BR BKN003 19/18 A2982 RMK AO2 SLP095
                 T01890183 $ =
2018-06-18 18:29 METAR KUUU 182229Z AUTO 21011G20KT 5SM BR OVC004 19/18 A2981 RMK AO2 T01890183 $
                 =
2018-06-18 18:18 METAR KUUU 182218Z AUTO 21012G19KT 180V250 7SM BKN005 19/18 A2981 RMK AO2
                 T01940183 $ =
2018-06-18 17:53 METAR KUUU 182153Z AUTO 21010G19KT 180V240 9SM FEW006 21/19 A2982 RMK AO2 SLP097
                 T02060189 $ =
2018-06-18 16:53 METAR KUUU 182053Z AUTO 20014G21KT 10SM CLR 21/18 A2984 RMK AO2 SLP101 T02060183
                 56028 =
2018-06-18 15:53 METAR KUUU 181953Z AUTO 21009G22KT 180V250 10SM CLR 22/19 A2986 RMK AO2 PK WND
                 19026/1855 SLP111 T02170194 =
2018-06-18 14:53 METAR KUUU 181853Z AUTO 20014G22KT 10SM CLR 22/19 A2989 RMK AO2 SLP120 T02220194
                 =
2018-06-18 13:53 METAR KUUU 181753Z AUTO 21011G18KT 190V260 10SM CLR 23/18 A2992 RMK AO2 SLP130
                 T02280178 10233 20189 58016 =
2018-06-18 12:53 METAR KUUU 181653Z AUTO 20011G18KT 10SM CLR 23/18 A2994 RMK AO2 SLP137 T02280183
                 =
2018-06-18 11:53 METAR KUUU 181553Z AUTO 20010G21KT 10SM CLR 23/18 A2995 RMK AO2 SLP140 T02280178
                 =
2018-06-18 10:53 METAR KUUU 181453Z AUTO 22009G20KT 190V250 10SM CLR 23/18 A2997 RMK AO2 SLP146
                 T02280178 56015 =
2018-06-18 09:53 METAR KUUU 181353Z AUTO 21010G19KT 10SM CLR 22/18 A2998 RMK AO2 SLP150 T02170183
                 =
2018-06-18 08:53 METAR KUUU 181253Z AUTO 20007G17KT 180V240 10SM CLR 21/18 A3000 RMK AO2 SLP156
                 T02060183 =
2018-06-18 08:14 METAR KUUU 181214Z AUTO 20010G15KT 10SM SCT004 20/18 A3000 RMK AO2 T02000183 =
2018-06-18 07:53 METAR KUUU 181153Z AUTO 19008KT 10SM OVC003 19/18 A3001 RMK AO2 SLP162 T01890183
                 10189 20172 58007 =
2018-06-18 06:53 METAR KUUU 181053Z AUTO 20005KT 6SM BR OVC003 18/18 A3002 RMK AO2 SLP164
                 T01830178 =
2018-06-18 06:13 METAR KUUU 181013Z AUTO VRB05KT 6SM BR BKN003 18/17 A3003 RMK AO2 T01780172 =
2018-06-18 05:53 METAR KUUU 180953Z AUTO VRB06KT 5SM BR FEW003 18/17 A3003 RMK AO2 SLP169
                 T01780172 =
2018-06-18 05:02 METAR KUUU 180902Z AUTO 21006KT 7SM FEW004 17/17 A3004 RMK AO2 T01720172 =
2018-06-18 04:53 METAR KUUU 180853Z AUTO 21005KT 8SM CLR 17/17 A3004 RMK AO2 SLP169 T01720167
                 58009 =
2018-06-18 03:53 METAR KUUU 180753Z AUTO VRB04KT 9SM CLR 17/17 A3004 RMK AO2 SLP172 T01720167 =
2018-06-18 02:53 METAR KUUU 180653Z AUTO VRB03KT 8SM CLR 17/17 A3006 RMK AO2 SLP177 T01720167 =
2018-06-18 01:53 METAR KUUU 180553Z AUTO 20004KT 7SM CLR 17/17 A3006 RMK AO2 SLP178 T01720167
                 10200 20172 58003 =

Support USWX by starting your Amazon purchase here.